createdAt,value
2022-11-20T00:01:29.598Z,18.67
2022-11-20T00:03:58.627Z,11.90
2022-11-20T00:06:26.140Z,14.87
2022-11-20T00:08:55.173Z,14.77
2022-11-20T00:11:23.234Z,11.63
2022-11-20T00:13:51.678Z,14.80
2022-11-20T00:16:20.093Z,17.87
2022-11-20T00:18:47.537Z,12.53
2022-11-20T00:21:16.091Z,18.57
2022-11-20T00:23:43.579Z,14.00
2022-11-20T00:26:11.891Z,17.90
2022-11-20T00:28:38.948Z,15.80
2022-11-20T00:31:06.970Z,13.97
2022-11-20T00:33:34.087Z,21.90
2022-11-20T00:36:05.320Z,21.37
2022-11-20T00:38:32.835Z,16.27
2022-11-20T00:41:00.991Z,19.17
2022-11-20T00:43:28.697Z,13.27
2022-11-20T00:45:59.774Z,15.37
2022-11-20T00:48:27.273Z,15.53
2022-11-20T00:50:54.859Z,16.23
2022-11-20T00:53:22.497Z,18.83
2022-11-20T00:56:03.108Z,13.00
2022-11-20T00:58:31.411Z,20.77
2022-11-20T01:01:19.447Z,16.63
2022-11-20T01:03:47.913Z,15.27
2022-11-20T01:06:19.106Z,15.73
2022-11-20T01:08:46.532Z,14.67
2022-11-20T01:11:14.885Z,17.93
2022-11-20T01:13:42.317Z,16.80
2022-11-20T01:16:09.423Z,21.97
2022-11-20T01:18:36.778Z,19.93
2022-11-20T01:21:07.532Z,23.57
2022-11-20T01:23:35.369Z,18.80
2022-11-20T01:26:03.525Z,14.70
2022-11-20T01:28:30.979Z,19.87
2022-11-20T01:30:58.204Z,15.23
2022-11-20T01:33:25.289Z,14.47
2022-11-20T01:35:52.344Z,17.37
2022-11-20T01:38:21.006Z,17.23
2022-11-20T01:40:55.486Z,20.57
2022-11-20T01:43:22.982Z,16.20
2022-11-20T01:46:08.509Z,15.20
2022-11-20T01:48:38.609Z,12.83
2022-11-20T01:51:06.411Z,14.70
2022-11-20T01:53:35.036Z,20.80
2022-11-20T01:56:03.071Z,14.93
2022-11-20T01:58:34.970Z,11.73
2022-11-20T02:01:02.232Z,18.77
2022-11-20T02:03:29.860Z,18.67
2022-11-20T02:06:09.191Z,17.37
2022-11-20T02:08:37.001Z,18.03
2022-11-20T02:11:04.083Z,13.60
2022-11-20T02:13:46.519Z,16.10
2022-11-20T02:16:27.360Z,17.60
2022-11-20T02:18:56.343Z,21.20
2022-11-20T02:21:38.603Z,15.33
2022-11-20T02:24:13.050Z,12.50
2022-11-20T02:27:09.241Z,17.63
2022-11-20T02:29:41.278Z,15.30
2022-11-20T02:32:18.891Z,14.93
2022-11-20T02:34:45.947Z,17.37
2022-11-20T02:37:13.270Z,17.97
2022-11-20T02:39:41.259Z,15.33
2022-11-20T02:42:08.309Z,16.33
2022-11-20T02:44:35.351Z,16.80
2022-11-20T02:47:02.415Z,20.13
2022-11-20T02:49:29.503Z,16.57
2022-11-20T02:51:56.577Z,15.67
2022-11-20T02:54:23.693Z,15.53
2022-11-20T02:56:50.792Z,16.43
2022-11-20T02:59:17.923Z,20.87
2022-11-20T03:01:45.104Z,13.90
2022-11-20T03:04:12.218Z,17.27
2022-11-20T03:06:39.260Z,16.90
2022-11-20T03:09:06.337Z,16.87
2022-11-20T03:11:33.437Z,14.93
2022-11-20T03:14:03.229Z,15.27
2022-11-20T03:16:30.263Z,12.90
2022-11-20T03:18:57.276Z,15.37
2022-11-20T03:21:24.356Z,17.43
2022-11-20T03:23:51.411Z,16.67
2022-11-20T03:26:20.026Z,22.33
2022-11-20T03:28:51.142Z,17.20
2022-11-20T03:31:19.283Z,15.63
2022-11-20T03:33:46.426Z,16.47
2022-11-20T03:36:14.539Z,15.93
2022-11-20T03:38:42.069Z,16.97
2022-11-20T03:41:10.489Z,17.20
2022-11-20T03:43:37.620Z,16.33
2022-11-20T03:46:05.119Z,15.13
2022-11-20T03:48:32.227Z,15.77
2022-11-20T03:51:18.719Z,18.33
2022-11-20T03:53:46.345Z,15.63
2022-11-20T03:56:13.962Z,12.47
2022-11-20T03:58:42.058Z,13.03
2022-11-20T04:01:10.185Z,20.80
2022-11-20T04:03:37.995Z,16.27
2022-11-20T04:06:12.778Z,12.53
2022-11-20T04:08:40.245Z,14.83
2022-11-20T04:11:14.551Z,16.67
2022-11-20T04:13:42.085Z,21.73
2022-11-20T04:16:10.055Z,15.87
2022-11-20T04:18:37.436Z,14.03
2022-11-20T04:21:05.210Z,15.80
2022-11-20T04:23:32.275Z,16.00
2022-11-20T04:26:03.289Z,24.63
2022-11-20T04:28:30.353Z,12.90
2022-11-20T04:31:03.053Z,16.30
2022-11-20T04:33:33.991Z,16.20
2022-11-20T04:36:02.863Z,11.97
2022-11-20T04:38:29.964Z,15.67
2022-11-20T04:41:04.182Z,12.83
2022-11-20T04:43:31.679Z,15.13
2022-11-20T04:45:59.576Z,12.93
2022-11-20T04:48:27.252Z,12.30
2022-11-20T04:50:54.947Z,14.83
2022-11-20T04:53:22.679Z,13.43
2022-11-20T04:55:49.754Z,11.93
2022-11-20T04:58:16.981Z,14.00
2022-11-20T05:00:44.119Z,12.43
2022-11-20T05:03:11.157Z,15.60
2022-11-20T05:05:38.182Z,12.97
2022-11-20T05:08:05.396Z,12.60
2022-11-20T05:10:32.452Z,14.40
2022-11-20T05:12:59.477Z,12.63
2022-11-20T05:15:26.585Z,18.00
2022-11-20T05:17:54.086Z,12.80
2022-11-20T05:20:21.143Z,10.27
2022-11-20T05:22:48.199Z,13.70
2022-11-20T05:25:15.335Z,11.70
2022-11-20T05:27:42.397Z,13.77
2022-11-20T05:30:09.868Z,12.03
2022-11-20T05:32:36.923Z,13.70
2022-11-20T05:35:04.058Z,12.83
2022-11-20T05:37:31.082Z,13.20
2022-11-20T05:39:58.141Z,12.10
2022-11-20T05:42:31.266Z,12.07
2022-11-20T05:44:59.039Z,13.07
2022-11-20T05:47:26.439Z,14.33
2022-11-20T05:49:53.549Z,15.17
2022-11-20T05:52:20.584Z,14.23
2022-11-20T05:54:47.724Z,12.67
2022-11-20T05:57:14.778Z,12.70
2022-11-20T05:59:41.859Z,16.97
2022-11-20T06:02:08.922Z,15.33
2022-11-20T06:04:36.021Z,11.17
2022-11-20T06:07:03.321Z,15.97
2022-11-20T06:09:30.689Z,13.37
2022-11-20T06:11:57.782Z,15.80
2022-11-20T06:14:24.829Z,16.73
2022-11-20T06:16:51.888Z,16.07
2022-11-20T06:19:19.026Z,13.40
2022-11-20T06:21:46.229Z,13.27
2022-11-20T06:24:13.431Z,15.43
2022-11-20T06:26:40.561Z,12.77
2022-11-20T06:29:07.604Z,16.87
2022-11-20T06:31:38.407Z,13.83
2022-11-20T06:34:07.095Z,12.90
2022-11-20T06:36:34.537Z,13.47
2022-11-20T06:39:02.059Z,16.87
2022-11-20T06:41:29.160Z,12.63
2022-11-20T06:43:56.233Z,12.83
2022-11-20T06:46:23.347Z,12.70
2022-11-20T06:48:51.264Z,17.17
2022-11-20T06:51:18.343Z,12.10
2022-11-20T06:53:45.376Z,12.80
2022-11-20T06:56:12.449Z,13.03
2022-11-20T06:58:39.529Z,12.17
2022-11-20T07:01:08.256Z,15.23
2022-11-20T07:03:35.435Z,17.77
2022-11-20T07:06:03.052Z,13.10
2022-11-20T07:08:30.272Z,14.70
2022-11-20T07:11:01.300Z,14.47
2022-11-20T07:13:28.830Z,14.70
2022-11-20T07:15:56.389Z,15.10
2022-11-20T07:18:23.530Z,18.97
2022-11-20T07:20:50.598Z,11.33
2022-11-20T07:23:17.697Z,12.70
2022-11-20T07:25:44.718Z,15.57
2022-11-20T07:28:11.815Z,18.40
2022-11-20T07:30:38.984Z,18.10
2022-11-20T07:33:06.134Z,13.80
2022-11-20T07:35:33.758Z,20.77
2022-11-20T07:38:00.824Z,17.27
2022-11-20T07:40:28.082Z,16.07
2022-11-20T07:42:57.179Z,13.30
2022-11-20T07:45:25.202Z,13.17
2022-11-20T07:47:52.614Z,15.00
2022-11-20T07:50:20.371Z,15.00
2022-11-20T07:52:47.420Z,12.20
2022-11-20T07:55:14.706Z,21.67
2022-11-20T07:57:41.851Z,17.73
2022-11-20T08:00:10.142Z,16.10
2022-11-20T08:02:40.987Z,22.00
2022-11-20T08:05:08.930Z,15.47
2022-11-20T08:07:39.776Z,13.90
2022-11-20T08:10:07.522Z,15.67
2022-11-20T08:12:53.346Z,16.20
2022-11-20T08:15:20.411Z,16.73
2022-11-20T08:18:08.358Z,15.23
2022-11-20T08:20:35.519Z,19.63
2022-11-20T08:23:03.532Z,19.77
2022-11-20T08:25:31.229Z,13.33
2022-11-20T08:28:00.365Z,19.47
2022-11-20T08:30:28.372Z,17.03
2022-11-20T08:32:55.761Z,18.03
2022-11-20T08:35:23.509Z,19.07
2022-11-20T08:37:50.568Z,20.33
2022-11-20T08:40:19.803Z,21.97
2022-11-20T08:42:50.944Z,15.67
2022-11-20T08:45:18.640Z,19.33
2022-11-20T08:47:45.951Z,16.77
2022-11-20T08:50:14.008Z,18.13
2022-11-20T08:52:41.199Z,18.30
2022-11-20T08:55:08.565Z,19.13
2022-11-20T08:57:36.487Z,22.93
2022-11-20T09:00:06.636Z,18.53
2022-11-20T09:02:34.857Z,24.20
2022-11-20T09:05:03.302Z,20.07
2022-11-20T09:07:33.741Z,17.50
2022-11-20T09:10:22.532Z,17.30
2022-11-20T09:12:50.327Z,18.97
2022-11-20T09:15:17.400Z,28.37
2022-11-20T09:17:44.441Z,23.70
2022-11-20T09:20:11.657Z,18.07
2022-11-20T09:22:41.655Z,17.93
2022-11-20T09:25:08.938Z,17.43
2022-11-20T09:27:36.622Z,19.00
2022-11-20T09:30:04.218Z,15.53
2022-11-20T09:32:31.276Z,18.03
2022-11-20T09:34:58.342Z,24.23
2022-11-20T09:37:25.487Z,16.47
2022-11-20T09:39:52.548Z,16.30
2022-11-20T09:42:39.617Z,18.90
2022-11-20T09:45:23.263Z,14.20
2022-11-20T09:47:50.314Z,16.20
2022-11-20T09:50:33.924Z,15.10
2022-11-20T09:53:03.976Z,15.37
2022-11-20T09:55:31.670Z,14.33
2022-11-20T09:57:59.616Z,12.90
2022-11-20T10:00:27.811Z,15.43
2022-11-20T10:02:57.452Z,14.60
2022-11-20T10:05:29.989Z,11.50
2022-11-20T10:08:10.686Z,12.23
2022-11-20T10:11:00.670Z,11.90
2022-11-20T10:13:30.476Z,13.97
2022-11-20T10:16:10.683Z,13.77
2022-11-20T10:18:44.399Z,20.50
2022-11-20T10:21:11.702Z,15.30
2022-11-20T10:23:50.667Z,18.73
2022-11-20T10:26:27.673Z,13.07
2022-11-20T10:29:12.846Z,10.57
2022-11-20T10:31:41.891Z,11.90
2022-11-20T10:34:22.595Z,10.97
2022-11-20T10:36:57.720Z,14.97
2022-11-20T10:39:48.047Z,11.33
2022-11-20T10:42:18.555Z,11.67
2022-11-20T10:45:05.787Z,12.13
2022-11-20T10:47:33.936Z,11.27
2022-11-20T10:50:04.672Z,11.70
2022-11-20T10:52:41.532Z,9.27
2022-11-20T10:55:19.813Z,9.80
2022-11-20T10:57:56.218Z,10.73
2022-11-20T11:00:23.346Z,10.67
2022-11-20T11:02:51.687Z,10.40
2022-11-20T11:05:29.467Z,9.40
2022-11-20T11:07:57.344Z,10.93
2022-11-20T11:10:39.528Z,9.87
2022-11-20T11:13:06.577Z,8.83
2022-11-20T11:15:40.835Z,8.30
2022-11-20T11:18:11.676Z,11.67
2022-11-20T11:20:39.094Z,11.43
2022-11-20T11:23:06.145Z,10.53
2022-11-20T11:25:37.188Z,11.63
2022-11-20T11:28:21.913Z,10.10
2022-11-20T11:30:52.229Z,9.47
2022-11-20T11:33:26.603Z,9.10
2022-11-20T11:35:53.726Z,10.80
2022-11-20T11:38:25.017Z,11.07
2022-11-20T11:40:55.249Z,7.23
2022-11-20T11:43:42.958Z,7.77
2022-11-20T11:46:22.497Z,8.73
2022-11-20T11:48:56.848Z,6.63
2022-11-20T11:51:23.916Z,7.73
2022-11-20T11:53:51.630Z,7.47
2022-11-20T11:56:18.749Z,12.47
2022-11-20T11:58:47.876Z,6.43
2022-11-20T12:01:34.332Z,8.33
2022-11-20T12:04:06.026Z,7.43
2022-11-20T12:06:34.664Z,10.07
2022-11-20T12:09:04.672Z,7.23
2022-11-20T12:11:31.704Z,6.47
2022-11-20T12:14:10.796Z,7.33
2022-11-20T12:16:39.414Z,7.43
2022-11-20T12:19:12.126Z,8.00
2022-11-20T12:21:39.162Z,7.03
2022-11-20T12:24:06.236Z,11.13
2022-11-20T12:26:45.195Z,7.87
2022-11-20T12:29:20.369Z,7.67
2022-11-20T12:34:20.605Z,6.93
2022-11-20T12:36:50.390Z,6.77
2022-11-20T12:39:17.432Z,7.90
2022-11-20T12:42:06.233Z,6.87
2022-11-20T12:45:10.296Z,8.47
2022-11-20T12:48:05.041Z,6.83
2022-11-20T12:51:00.115Z,6.03
2022-11-20T12:53:31.330Z,7.70
2022-11-20T12:56:17.029Z,7.30
2022-11-20T12:59:04.322Z,6.63
2022-11-20T13:01:40.741Z,8.27
2022-11-20T13:04:26.415Z,7.10
2022-11-20T13:06:53.865Z,5.67
2022-11-20T13:09:24.968Z,7.63
2022-11-20T13:11:52.050Z,5.90
2022-11-20T13:14:41.606Z,5.27
2022-11-20T13:17:13.365Z,5.97
2022-11-20T13:19:40.877Z,6.83
2022-11-20T13:22:09.538Z,7.67
2022-11-20T13:24:36.613Z,8.57
2022-11-20T13:27:03.685Z,8.73
2022-11-20T13:29:31.230Z,6.27
2022-11-20T13:32:13.653Z,5.80
2022-11-20T13:34:40.865Z,9.73
2022-11-20T13:37:25.942Z,6.47
2022-11-20T13:39:53.041Z,6.60
2022-11-20T13:42:20.062Z,7.13
2022-11-20T13:44:52.940Z,6.63
2022-11-20T13:47:27.614Z,4.87
2022-11-20T13:49:55.670Z,4.77
2022-11-20T13:52:36.740Z,6.10
2022-11-20T13:55:03.799Z,6.40
2022-11-20T13:57:39.716Z,5.37
2022-11-20T14:00:12.652Z,5.43
2022-11-20T14:02:40.262Z,6.37
2022-11-20T14:05:07.472Z,11.50
2022-11-20T14:07:38.843Z,4.83
2022-11-20T14:10:06.632Z,6.13
2022-11-20T14:12:35.339Z,4.87
2022-11-20T14:15:02.403Z,6.03
2022-11-20T14:17:35.865Z,5.40
2022-11-20T14:20:05.235Z,6.23
2022-11-20T14:22:32.417Z,7.40
2022-11-20T14:25:05.252Z,7.37
2022-11-20T14:27:35.015Z,6.83
2022-11-20T14:30:03.990Z,10.10
2022-11-20T14:32:32.264Z,7.03
2022-11-20T14:35:02.784Z,6.70
2022-11-20T14:37:32.369Z,9.57
2022-11-20T14:39:59.864Z,10.93
2022-11-20T14:42:27.730Z,9.53
2022-11-20T14:44:56.684Z,7.23
2022-11-20T14:47:25.118Z,7.00
2022-11-20T14:49:53.302Z,8.80
2022-11-20T14:52:24.629Z,10.17
2022-11-20T14:54:52.965Z,8.47
2022-11-20T14:57:23.154Z,9.63
2022-11-20T14:59:50.222Z,7.47
2022-11-20T15:02:17.575Z,8.03
2022-11-20T15:04:47.669Z,9.87
2022-11-20T15:07:24.931Z,10.63
2022-11-20T15:10:11.247Z,8.53
2022-11-20T15:12:57.869Z,8.13
2022-11-20T15:15:36.830Z,7.60
2022-11-20T15:18:05.035Z,9.23
2022-11-20T15:20:35.553Z,16.10
2022-11-20T15:23:02.649Z,8.83
2022-11-20T15:25:29.824Z,8.33
2022-11-20T15:27:57.949Z,10.30
2022-11-20T15:30:25.156Z,8.63
2022-11-20T15:32:52.424Z,7.43
2022-11-20T15:35:19.545Z,10.07
2022-11-20T15:37:46.619Z,9.10
2022-11-20T15:40:14.046Z,9.00
2022-11-20T15:43:01.099Z,10.57
2022-11-20T15:45:30.188Z,14.17
2022-11-20T15:47:57.238Z,20.03
2022-11-20T15:50:27.450Z,18.57
2022-11-20T15:52:54.496Z,11.00
2022-11-20T15:55:21.561Z,12.37
2022-11-20T15:57:48.722Z,9.77
2022-11-20T16:00:19.288Z,14.30
2022-11-20T16:02:50.479Z,14.07
2022-11-20T16:05:18.585Z,13.43
2022-11-20T16:07:45.857Z,13.47
2022-11-20T16:10:13.241Z,12.93
2022-11-20T16:12:58.940Z,11.20
2022-11-20T16:15:44.660Z,10.50
2022-11-20T16:18:12.448Z,10.77
2022-11-20T16:20:39.907Z,9.63
2022-11-20T16:23:07.550Z,13.50
2022-11-20T16:25:34.689Z,16.13
2022-11-20T16:28:01.797Z,14.73
2022-11-20T16:30:28.844Z,13.17
2022-11-20T16:32:55.916Z,11.37
2022-11-20T16:35:23.204Z,12.93
2022-11-20T16:37:50.293Z,15.63
2022-11-20T16:40:17.384Z,10.87
2022-11-20T16:42:44.464Z,10.53
2022-11-20T16:45:11.762Z,11.40
2022-11-20T16:47:38.892Z,10.27
2022-11-20T16:50:06.940Z,13.57
2022-11-20T16:52:34.020Z,12.53
2022-11-20T16:55:01.098Z,10.80
2022-11-20T16:57:32.893Z,14.90
2022-11-20T17:00:02.554Z,11.23
2022-11-20T17:02:29.895Z,11.70
2022-11-20T17:04:56.929Z,11.97
2022-11-20T17:07:24.056Z,13.90
2022-11-20T17:09:51.180Z,13.63
2022-11-20T17:12:18.285Z,11.00
2022-11-20T17:14:45.339Z,10.27
2022-11-20T17:17:12.445Z,12.17
2022-11-20T17:19:39.522Z,10.67
2022-11-20T17:22:06.557Z,10.77
2022-11-20T17:24:34.228Z,12.80
2022-11-20T17:27:01.550Z,12.73
2022-11-20T17:29:28.683Z,13.73
2022-11-20T17:31:55.832Z,10.93
2022-11-20T17:34:23.196Z,12.53
2022-11-20T17:36:50.509Z,9.77
2022-11-20T17:39:18.330Z,10.50
2022-11-20T17:41:45.419Z,14.90
2022-11-20T17:44:13.404Z,11.53
2022-11-20T17:46:40.700Z,12.07
2022-11-20T17:49:07.823Z,13.67
2022-11-20T17:51:35.498Z,15.40
2022-11-20T17:54:05.541Z,11.80
2022-11-20T17:56:51.854Z,9.23
2022-11-20T17:59:19.076Z,7.07
2022-11-20T18:01:46.603Z,10.27
2022-11-20T18:04:14.235Z,7.47
2022-11-20T18:06:41.305Z,9.53
2022-11-20T18:09:08.626Z,9.23
2022-11-20T18:11:36.824Z,15.63
2022-11-20T18:14:24.416Z,10.10
2022-11-20T18:16:53.195Z,15.17
2022-11-20T18:19:21.790Z,11.00
2022-11-20T18:21:49.005Z,11.63
2022-11-20T18:24:16.101Z,13.57
2022-11-20T18:26:44.746Z,12.57
2022-11-20T18:29:12.824Z,10.00
2022-11-20T18:31:40.349Z,12.17
2022-11-20T18:34:11.452Z,13.97
2022-11-20T18:36:38.962Z,13.27
2022-11-20T18:39:06.381Z,11.93
2022-11-20T18:41:52.333Z,12.10
2022-11-20T18:44:39.503Z,9.87
2022-11-20T18:47:14.260Z,16.43
2022-11-20T18:49:42.768Z,12.47
2022-11-20T18:52:09.870Z,8.23
2022-11-20T18:54:37.183Z,10.10
2022-11-20T18:57:05.198Z,12.87
2022-11-20T18:59:32.438Z,12.80
2022-11-20T19:01:59.743Z,11.27
2022-11-20T19:04:27.617Z,12.97
2022-11-20T19:06:56.242Z,10.40
2022-11-20T19:09:24.221Z,12.87
2022-11-20T19:11:51.699Z,19.63
2022-11-20T19:14:18.953Z,12.27
2022-11-20T19:16:46.226Z,10.67
2022-11-20T19:19:13.488Z,11.03
2022-11-20T19:21:42.132Z,8.63
2022-11-20T19:24:09.526Z,12.30
2022-11-20T19:26:37.825Z,10.67
2022-11-20T19:29:05.555Z,12.17
2022-11-20T19:31:32.687Z,10.77
2022-11-20T19:34:00.781Z,13.57
2022-11-20T19:36:29.335Z,11.43
2022-11-20T19:38:56.663Z,12.60
2022-11-20T19:41:31.418Z,12.77
2022-11-20T19:44:02.520Z,12.20
2022-11-20T19:46:30.623Z,12.13
2022-11-20T19:48:58.045Z,11.53
2022-11-20T19:51:26.347Z,11.73
2022-11-20T19:53:53.900Z,10.73
2022-11-20T19:56:21.592Z,15.23
2022-11-20T19:58:48.654Z,14.27
2022-11-20T20:01:17.630Z,16.07
2022-11-20T20:03:45.059Z,15.57
2022-11-20T20:06:14.076Z,15.23
2022-11-20T20:08:41.619Z,27.77
2022-11-20T20:11:12.436Z,17.03
2022-11-20T20:13:39.645Z,18.47
2022-11-20T20:16:07.735Z,18.13
2022-11-20T20:18:34.875Z,15.67
2022-11-20T20:21:06.155Z,26.37
2022-11-20T20:23:33.445Z,18.17
2022-11-20T20:26:00.602Z,15.63
2022-11-20T20:28:28.246Z,15.83
2022-11-20T20:30:55.688Z,13.23
2022-11-20T20:33:23.074Z,15.20
2022-11-20T20:35:50.266Z,16.93
2022-11-20T20:38:17.335Z,26.57
2022-11-20T20:40:49.502Z,15.60
2022-11-20T20:43:17.024Z,13.97
2022-11-20T20:45:50.847Z,16.80
2022-11-20T20:48:21.756Z,15.23
2022-11-20T20:50:58.514Z,15.73
2022-11-20T20:53:25.704Z,16.20
2022-11-20T20:55:59.345Z,14.73
2022-11-20T20:58:27.318Z,15.57
2022-11-20T21:00:54.397Z,14.50
2022-11-20T21:03:21.463Z,14.57
2022-11-20T21:05:55.703Z,16.83
2022-11-20T21:08:22.844Z,20.27
2022-11-20T21:10:50.222Z,17.03
2022-11-20T21:13:17.299Z,18.33
2022-11-20T21:15:46.898Z,21.77
2022-11-20T21:18:13.944Z,26.10
2022-11-20T21:20:59.587Z,18.97
2022-11-20T21:23:26.688Z,18.40
2022-11-20T21:25:53.751Z,18.30
2022-11-20T21:28:20.848Z,17.23
2022-11-20T21:30:48.129Z,13.83
2022-11-20T21:33:15.459Z,16.13
2022-11-20T21:35:42.534Z,15.73
2022-11-20T21:38:09.695Z,20.07
2022-11-20T21:40:36.777Z,14.77
2022-11-20T21:43:03.803Z,14.20
2022-11-20T21:45:30.908Z,16.60
2022-11-20T21:47:57.959Z,12.97
2022-11-20T21:50:25.048Z,18.47
2022-11-20T21:52:52.100Z,20.07
2022-11-20T21:55:19.200Z,24.60
2022-11-20T21:57:46.254Z,22.80
2022-11-20T22:00:13.651Z,13.70
2022-11-20T22:02:40.701Z,16.20
2022-11-20T22:05:08.687Z,14.77
2022-11-20T22:07:35.980Z,25.07
2022-11-20T22:10:03.043Z,18.27
2022-11-20T22:12:30.174Z,14.73
2022-11-20T22:14:57.228Z,15.30
2022-11-20T22:17:44.237Z,17.50
2022-11-20T22:20:11.414Z,14.97
2022-11-20T22:22:40.793Z,15.07
2022-11-20T22:25:08.037Z,22.23
2022-11-20T22:27:35.091Z,13.03
2022-11-20T22:30:02.257Z,16.40
2022-11-20T22:32:29.317Z,21.40
2022-11-20T22:34:56.381Z,15.43
2022-11-20T22:37:23.426Z,18.87
2022-11-20T22:39:50.514Z,21.47
2022-11-20T22:42:17.604Z,17.00
2022-11-20T22:44:44.655Z,15.93
2022-11-20T22:47:11.764Z,31.47
2022-11-20T22:49:38.850Z,26.47
2022-11-20T22:52:05.981Z,18.07
2022-11-20T22:54:33.036Z,17.97
2022-11-20T22:57:00.102Z,18.90
2022-11-20T22:59:27.177Z,24.77
2022-11-20T23:01:54.234Z,20.00
2022-11-20T23:04:21.335Z,19.07
2022-11-20T23:06:48.426Z,17.97
2022-11-20T23:09:15.678Z,27.83
2022-11-20T23:11:42.737Z,22.87
2022-11-20T23:14:16.591Z,21.17
2022-11-20T23:16:43.659Z,22.73
2022-11-20T23:19:12.381Z,22.17
2022-11-20T23:21:40.565Z,16.27
2022-11-20T23:24:08.166Z,17.20
2022-11-20T23:26:36.806Z,19.00
2022-11-20T23:29:04.071Z,20.73
2022-11-20T23:31:31.837Z,22.67
2022-11-20T23:33:59.590Z,25.67
2022-11-20T23:36:26.970Z,19.50
2022-11-20T23:38:54.084Z,18.27
2022-11-20T23:41:21.210Z,22.03
2022-11-20T23:43:48.266Z,22.30
2022-11-20T23:46:16.987Z,23.07
2022-11-20T23:48:45.073Z,22.23
2022-11-20T23:51:12.621Z,23.30
2022-11-20T23:53:39.964Z,25.63
2022-11-20T23:56:07.261Z,22.60
2022-11-20T23:58:35.761Z,19.97
